createdAt,value
2023-03-03T00:01:13.210Z,102174.72
2023-03-03T00:03:40.336Z,102180.34
2023-03-03T00:06:10.816Z,102185.97
2023-03-03T00:08:37.498Z,102178.94
2023-03-03T00:11:06.189Z,102180.88
2023-03-03T00:13:33.829Z,102191.56
2023-03-03T00:16:14.702Z,102186.28
2023-03-03T00:18:44.702Z,102187.06
2023-03-03T00:21:29.813Z,102198.38
2023-03-03T00:24:05.262Z,102184.91
2023-03-03T00:26:36.599Z,102175.75
2023-03-03T00:29:24.644Z,102187.47
2023-03-03T00:31:51.122Z,102179.81
2023-03-03T00:34:17.546Z,102184.56
2023-03-03T00:36:44.640Z,102180.97
2023-03-03T00:39:18.793Z,102190.00
2023-03-03T00:41:45.600Z,102182.44
2023-03-03T00:44:25.751Z,102172.09
2023-03-03T00:46:54.081Z,102168.25
2023-03-03T00:49:26.127Z,102173.34
2023-03-03T00:51:53.816Z,102168.38
2023-03-03T00:54:20.440Z,102172.78
2023-03-03T00:56:46.891Z,102171.69
2023-03-03T00:59:13.356Z,102179.47
2023-03-03T01:01:39.801Z,102163.78
2023-03-03T01:04:06.283Z,102170.19
2023-03-03T01:06:32.844Z,102166.97
2023-03-03T01:08:59.435Z,102171.72
2023-03-03T01:11:28.611Z,102171.09
2023-03-03T01:13:55.168Z,102168.22
2023-03-03T01:16:21.807Z,102176.56
2023-03-03T01:18:48.308Z,102171.31
2023-03-03T01:21:14.828Z,102174.91
2023-03-03T01:23:41.435Z,102173.09
2023-03-03T01:26:08.005Z,102174.34
2023-03-03T01:28:34.786Z,102165.03
2023-03-03T01:31:06.249Z,102170.44
2023-03-03T01:33:34.026Z,102160.38
2023-03-03T01:36:00.733Z,102157.09
2023-03-03T01:38:27.617Z,102152.97
2023-03-03T01:40:58.838Z,102160.81
2023-03-03T01:43:31.038Z,102164.41
2023-03-03T01:45:57.546Z,102155.25
2023-03-03T01:48:36.930Z,102147.44
2023-03-03T01:51:07.745Z,102152.75
2023-03-03T01:53:42.784Z,102137.59
2023-03-03T01:56:10.159Z,102141.38
2023-03-03T01:58:47.335Z,102148.66
2023-03-03T02:01:22.549Z,102146.75
2023-03-03T02:03:49.578Z,102143.19
2023-03-03T02:06:18.729Z,102138.28
2023-03-03T02:09:04.240Z,102144.72
2023-03-03T02:11:33.226Z,102143.75
2023-03-03T02:13:59.718Z,102147.44
2023-03-03T02:16:26.525Z,102144.53
2023-03-03T02:18:53.011Z,102148.56
2023-03-03T02:21:22.004Z,102145.97
2023-03-03T02:24:23.866Z,102144.53
2023-03-03T02:26:50.418Z,102138.72
2023-03-03T02:29:17.142Z,102146.78
2023-03-03T02:31:44.080Z,102156.00
2023-03-03T02:34:10.886Z,102168.13
2023-03-03T02:36:39.226Z,102155.81
2023-03-03T02:39:11.798Z,102163.25
2023-03-03T02:41:56.873Z,102153.69
2023-03-03T02:44:25.480Z,102171.22
2023-03-03T02:46:53.261Z,102167.00
2023-03-03T02:49:24.579Z,102169.75
2023-03-03T02:51:51.528Z,102172.31
2023-03-03T02:54:19.709Z,102163.56
2023-03-03T02:56:46.560Z,102164.81
2023-03-03T02:59:13.087Z,102157.88
2023-03-03T03:01:39.771Z,102149.88
2023-03-03T03:04:09.597Z,102147.66
2023-03-03T03:06:36.984Z,102143.72
2023-03-03T03:09:05.089Z,102151.31
2023-03-03T03:11:31.784Z,102144.41
2023-03-03T03:13:58.226Z,102152.78
2023-03-03T03:16:24.735Z,102153.34
2023-03-03T03:18:51.296Z,102141.59
2023-03-03T03:21:17.968Z,102145.72
2023-03-03T03:23:44.682Z,102135.03
2023-03-03T03:26:11.666Z,102141.53
2023-03-03T03:28:38.435Z,102141.84
2023-03-03T03:31:06.035Z,102127.19
2023-03-03T03:33:32.607Z,102131.78
2023-03-03T03:36:00.008Z,102128.19
2023-03-03T03:38:27.278Z,102123.94
2023-03-03T03:40:54.464Z,102127.31
2023-03-03T03:43:21.004Z,102121.94
2023-03-03T03:45:47.588Z,102124.72
2023-03-03T03:48:14.405Z,102117.94
2023-03-03T03:50:40.864Z,102126.91
2023-03-03T03:53:07.694Z,102131.13
2023-03-03T03:55:34.289Z,102112.59
2023-03-03T03:58:00.771Z,102105.66
2023-03-03T04:00:27.284Z,102113.69
2023-03-03T04:02:53.838Z,102117.44
2023-03-03T04:05:21.216Z,102110.13
2023-03-03T04:07:47.726Z,102116.31
2023-03-03T04:10:14.222Z,102115.28
2023-03-03T04:12:40.764Z,102119.31
2023-03-03T04:15:10.908Z,102118.38
2023-03-03T04:17:37.675Z,102114.13
2023-03-03T04:20:04.984Z,102116.56
2023-03-03T04:22:36.029Z,102123.28
2023-03-03T04:25:06.206Z,102125.06
2023-03-03T04:27:33.389Z,102127.88
2023-03-03T04:30:00.121Z,102127.75
2023-03-03T04:32:26.649Z,102123.94
2023-03-03T04:35:05.748Z,102133.78
2023-03-03T04:37:34.085Z,102126.53
2023-03-03T04:40:00.751Z,102131.44
2023-03-03T04:42:28.292Z,102130.56
2023-03-03T04:44:54.891Z,102126.75
2023-03-03T04:47:21.399Z,102129.16
2023-03-03T04:49:47.837Z,102126.09
2023-03-03T04:52:14.430Z,102125.41
2023-03-03T04:54:40.871Z,102125.69
2023-03-03T04:57:09.512Z,102114.44
2023-03-03T04:59:36.384Z,102120.53
2023-03-03T05:02:04.694Z,102124.63
2023-03-03T05:04:31.336Z,102123.16
2023-03-03T05:06:57.944Z,102122.69
2023-03-03T05:09:24.479Z,102143.13
2023-03-03T05:11:51.699Z,102146.91
2023-03-03T05:14:18.556Z,102151.00
2023-03-03T05:16:45.223Z,102139.13
2023-03-03T05:19:12.429Z,102138.56
2023-03-03T05:21:42.479Z,102148.72
2023-03-03T05:24:10.639Z,102152.44
2023-03-03T05:26:37.247Z,102136.91
2023-03-03T05:29:04.166Z,102138.66
2023-03-03T05:31:30.669Z,102147.06
2023-03-03T05:33:57.235Z,102138.47
2023-03-03T05:36:23.810Z,102134.81
2023-03-03T05:38:50.455Z,102148.66
2023-03-03T05:41:16.964Z,102147.22
2023-03-03T05:43:43.746Z,102147.66
2023-03-03T05:46:10.485Z,102148.75
2023-03-03T05:48:36.978Z,102150.78
2023-03-03T05:51:03.591Z,102159.16
2023-03-03T05:53:30.207Z,102151.00
2023-03-03T05:55:56.710Z,102156.94
2023-03-03T05:58:23.380Z,102140.91
2023-03-03T06:00:49.833Z,102148.56
2023-03-03T06:03:17.122Z,102144.06
2023-03-03T06:05:43.796Z,102144.47
2023-03-03T06:08:10.294Z,102152.19
2023-03-03T06:10:36.759Z,102149.63
2023-03-03T06:13:03.296Z,102151.38
2023-03-03T06:15:29.807Z,102156.94
2023-03-03T06:17:56.317Z,102154.75
2023-03-03T06:20:22.805Z,102138.22
2023-03-03T06:22:49.310Z,102148.59
2023-03-03T06:25:15.904Z,102145.94
2023-03-03T06:27:42.443Z,102148.69
2023-03-03T06:30:09.532Z,102150.63
2023-03-03T06:32:36.061Z,102151.09
2023-03-03T06:35:02.539Z,102145.19
2023-03-03T06:37:29.436Z,102148.91
2023-03-03T06:39:55.875Z,102148.78
2023-03-03T06:42:24.935Z,102149.41
2023-03-03T06:44:51.477Z,102152.41
2023-03-03T06:47:18.042Z,102147.09
2023-03-03T06:49:44.481Z,102154.88
2023-03-03T06:52:31.195Z,102167.16
2023-03-03T06:54:59.395Z,102154.78
2023-03-03T06:57:31.214Z,102161.97
2023-03-03T07:00:12.325Z,102160.53
2023-03-03T07:02:38.787Z,102162.84
2023-03-03T07:05:07.718Z,102157.25
2023-03-03T07:07:34.168Z,102155.81
2023-03-03T07:10:00.608Z,102151.03
2023-03-03T07:12:29.840Z,102150.34
2023-03-03T07:15:24.264Z,102147.59
2023-03-03T07:17:55.616Z,102170.78
2023-03-03T07:20:35.134Z,102168.84
2023-03-03T07:23:28.966Z,102170.03
2023-03-03T07:25:55.597Z,102175.66
2023-03-03T07:28:22.047Z,102177.28
2023-03-03T07:30:48.928Z,102176.91
2023-03-03T07:33:36.214Z,102181.78
2023-03-03T07:36:04.042Z,102182.94
2023-03-03T07:38:47.092Z,102177.19
2023-03-03T07:41:25.688Z,102188.13
2023-03-03T07:44:12.638Z,102183.06
2023-03-03T07:46:44.584Z,102179.13
2023-03-03T07:49:24.273Z,102183.19
2023-03-03T07:51:58.343Z,102181.28
2023-03-03T07:54:32.258Z,102187.16
2023-03-03T07:57:12.274Z,102186.75
2023-03-03T07:59:48.811Z,102183.78
2023-03-03T08:02:30.835Z,102188.25
2023-03-03T08:04:57.415Z,102188.75
2023-03-03T08:07:23.958Z,102177.03
2023-03-03T08:10:00.535Z,102180.91
2023-03-03T08:12:35.454Z,102178.94
2023-03-03T08:15:23.313Z,102178.03
2023-03-03T08:17:51.067Z,102174.00
2023-03-03T08:20:44.612Z,102166.75
2023-03-03T08:23:12.723Z,102154.16
2023-03-03T08:25:39.747Z,102164.88
2023-03-03T08:28:06.425Z,102166.84
2023-03-03T08:30:32.880Z,102170.09
2023-03-03T08:32:59.415Z,102164.84
2023-03-03T08:35:27.600Z,102163.00
2023-03-03T08:37:54.137Z,102166.31
2023-03-03T08:40:20.649Z,102169.75
2023-03-03T08:42:47.598Z,102169.75
2023-03-03T08:45:14.223Z,102179.59
2023-03-03T08:47:40.690Z,102178.53
2023-03-03T08:50:07.391Z,102187.78
2023-03-03T08:52:34.402Z,102187.72
2023-03-03T08:55:08.835Z,102173.59
2023-03-03T08:57:42.395Z,102178.69
2023-03-03T09:00:13.630Z,102168.88
2023-03-03T09:02:40.614Z,102183.72
2023-03-03T09:05:07.993Z,102181.81
2023-03-03T09:07:35.163Z,102182.88
2023-03-03T09:10:01.907Z,102182.75
2023-03-03T09:12:36.564Z,102177.16
2023-03-03T09:15:17.273Z,102175.69
2023-03-03T09:17:44.477Z,102171.53
2023-03-03T09:20:19.978Z,102163.88
2023-03-03T09:22:46.431Z,102169.47
2023-03-03T09:25:23.352Z,102175.09
2023-03-03T09:27:53.415Z,102174.84
2023-03-03T09:30:25.973Z,102170.94
2023-03-03T09:32:53.173Z,102162.88
2023-03-03T09:35:36.556Z,102166.22
2023-03-03T09:38:14.376Z,102166.72
2023-03-03T09:41:00.713Z,102174.75
2023-03-03T09:43:37.594Z,102172.34
2023-03-03T09:46:07.150Z,102175.56
2023-03-03T09:48:39.604Z,102171.09
2023-03-03T09:51:27.817Z,102180.09
2023-03-03T09:54:33.906Z,102176.97
2023-03-03T09:57:41.803Z,102168.69
2023-03-03T10:00:26.631Z,102169.22
2023-03-03T10:03:01.715Z,102164.16
2023-03-03T10:06:13.394Z,102173.78
2023-03-03T10:08:46.291Z,102171.00
2023-03-03T10:11:45.374Z,102169.97
2023-03-03T10:14:38.425Z,102162.34
2023-03-03T10:17:20.889Z,102156.50
2023-03-03T10:20:05.579Z,102156.13
2023-03-03T10:22:48.804Z,102160.63
2023-03-03T10:25:42.310Z,102162.53
2023-03-03T10:28:43.549Z,102162.28
2023-03-03T10:31:20.797Z,102167.59
2023-03-03T10:34:13.470Z,102159.53
2023-03-03T10:36:58.157Z,102165.03
2023-03-03T10:39:49.713Z,102164.69
2023-03-03T10:42:35.099Z,102154.47
2023-03-03T10:45:36.042Z,102146.19
2023-03-03T10:48:41.370Z,102146.84
2023-03-03T10:51:07.877Z,102136.47
2023-03-03T10:53:41.457Z,102143.31
2023-03-03T10:56:26.197Z,102148.59
2023-03-03T10:59:13.567Z,102144.59
2023-03-03T11:02:01.168Z,102138.38
2023-03-03T11:04:50.818Z,102133.97
2023-03-03T11:07:17.281Z,102129.34
2023-03-03T11:09:43.735Z,102120.94
2023-03-03T11:12:30.495Z,102120.16
2023-03-03T11:15:29.262Z,102112.50
2023-03-03T11:18:02.390Z,102113.81
2023-03-03T11:20:28.924Z,102114.31
2023-03-03T11:23:00.086Z,102113.94
2023-03-03T11:25:40.593Z,102114.09
2023-03-03T11:28:54.955Z,102102.19
2023-03-03T11:31:32.269Z,102091.31
2023-03-03T11:34:07.688Z,102097.59
2023-03-03T11:36:35.346Z,102088.19
2023-03-03T11:39:13.764Z,102083.31
2023-03-03T11:41:54.483Z,102085.91
2023-03-03T11:44:30.039Z,102083.47
2023-03-03T11:46:58.791Z,102085.84
2023-03-03T11:49:37.626Z,102079.25
2023-03-03T11:52:16.289Z,102081.69
2023-03-03T11:55:00.031Z,102077.47
2023-03-03T11:57:36.213Z,102071.00
2023-03-03T12:00:27.611Z,102060.44
2023-03-03T12:03:12.830Z,102057.34
2023-03-03T12:05:46.820Z,102054.53
2023-03-03T12:08:54.187Z,102048.03
2023-03-03T12:11:44.482Z,102043.88
2023-03-03T12:14:33.106Z,102050.78
2023-03-03T12:17:30.036Z,102045.09
2023-03-03T12:20:15.155Z,102053.03
2023-03-03T12:23:06.488Z,102050.03
2023-03-03T12:25:38.523Z,102055.25
2023-03-03T12:28:26.100Z,102041.00
2023-03-03T12:31:35.526Z,102048.94
2023-03-03T12:34:33.094Z,102049.25
2023-03-03T12:37:13.797Z,102039.28
2023-03-03T12:40:17.766Z,102031.81
2023-03-03T12:42:44.410Z,102028.44
2023-03-03T12:45:24.274Z,102024.41
2023-03-03T12:47:54.740Z,102023.72
2023-03-03T12:50:31.427Z,102025.81
2023-03-03T12:53:09.876Z,102016.69
2023-03-03T12:55:53.895Z,102020.94
2023-03-03T12:58:42.199Z,102014.09
2023-03-03T13:01:28.469Z,102013.78
2023-03-03T13:04:10.570Z,102006.84
2023-03-03T13:06:47.103Z,102004.13
2023-03-03T13:09:22.652Z,102007.81
2023-03-03T13:11:55.138Z,101988.69
2023-03-03T13:14:46.970Z,102003.41
2023-03-03T13:17:25.578Z,101992.09
2023-03-03T13:20:03.782Z,101985.13
2023-03-03T13:23:11.142Z,101980.38
2023-03-03T13:25:44.454Z,101978.63
2023-03-03T13:28:41.447Z,101982.00
2023-03-03T13:31:10.969Z,101969.78
2023-03-03T13:33:37.990Z,101969.97
2023-03-03T13:36:09.546Z,101974.69
2023-03-03T13:38:48.163Z,101969.09
2023-03-03T13:41:32.351Z,101961.66
2023-03-03T13:44:25.557Z,101949.78
2023-03-03T13:47:12.559Z,101951.84
2023-03-03T13:49:47.620Z,101957.56
2023-03-03T13:52:27.310Z,101944.03
2023-03-03T13:54:57.785Z,101944.28
2023-03-03T13:57:42.206Z,101941.59
2023-03-03T14:00:37.510Z,101944.91
2023-03-03T14:03:15.477Z,101933.50
2023-03-03T14:05:45.804Z,101939.94
2023-03-03T14:08:27.783Z,101938.38
2023-03-03T14:11:12.610Z,101938.22
2023-03-03T14:13:57.468Z,101931.50
2023-03-03T14:16:42.476Z,101924.22
2023-03-03T14:19:15.011Z,101925.53
2023-03-03T14:21:49.484Z,101925.81
2023-03-03T14:24:21.104Z,101922.28
2023-03-03T14:26:59.200Z,101915.97
2023-03-03T14:29:28.821Z,101918.63
2023-03-03T14:31:57.284Z,101913.63
2023-03-03T14:34:23.774Z,101908.56
2023-03-03T14:36:57.842Z,101908.44
2023-03-03T14:39:38.896Z,101898.38
2023-03-03T14:42:30.677Z,101907.41
2023-03-03T14:44:59.283Z,101897.31
2023-03-03T14:47:27.632Z,101893.81
2023-03-03T14:49:55.820Z,101897.91
2023-03-03T14:52:30.586Z,101899.91
2023-03-03T14:55:00.391Z,101894.13
2023-03-03T14:57:37.641Z,101891.47
2023-03-03T15:00:13.790Z,101896.66
2023-03-03T15:02:43.690Z,101891.16
2023-03-03T15:05:17.879Z,101884.88
2023-03-03T15:07:45.160Z,101879.53
2023-03-03T15:10:13.472Z,101884.41
2023-03-03T15:12:41.805Z,101871.84
2023-03-03T15:15:19.038Z,101875.22
2023-03-03T15:18:02.851Z,101869.25
2023-03-03T15:21:05.227Z,101872.31
2023-03-03T15:23:59.260Z,101878.09
2023-03-03T15:26:44.027Z,101869.53
2023-03-03T15:29:13.314Z,101867.97
2023-03-03T15:32:04.294Z,101867.00
2023-03-03T15:34:34.026Z,101864.03
2023-03-03T15:37:45.066Z,101849.19
2023-03-03T15:40:14.326Z,101853.72
2023-03-03T15:42:56.496Z,101852.31
2023-03-03T15:45:34.536Z,101851.06
2023-03-03T15:48:34.434Z,101846.50
2023-03-03T15:51:12.857Z,101840.88
2023-03-03T15:53:48.572Z,101831.66
2023-03-03T15:56:38.149Z,101835.56
2023-03-03T15:59:34.406Z,101828.75
2023-03-03T16:02:36.766Z,101830.84
2023-03-03T16:05:15.227Z,101824.78
2023-03-03T16:08:04.878Z,101817.00
2023-03-03T16:11:10.539Z,101830.88
2023-03-03T16:13:52.289Z,101829.00
2023-03-03T16:17:13.210Z,101825.31
2023-03-03T16:20:09.618Z,101817.97
2023-03-03T16:23:13.179Z,101822.22
2023-03-03T16:25:58.281Z,101816.38
2023-03-03T16:28:24.670Z,101815.91
2023-03-03T16:31:05.678Z,101821.03
2023-03-03T16:33:49.450Z,101815.09
2023-03-03T16:36:40.823Z,101817.16
2023-03-03T16:39:16.142Z,101815.97
2023-03-03T16:41:56.051Z,101819.56
2023-03-03T16:44:47.620Z,101823.06
2023-03-03T16:47:39.379Z,101820.44
2023-03-03T16:50:27.581Z,101816.53
2023-03-03T16:53:12.441Z,101818.22
2023-03-03T16:56:00.568Z,101816.22
2023-03-03T16:59:05.865Z,101816.19
2023-03-03T17:01:42.429Z,101813.91
2023-03-03T17:04:15.500Z,101814.34
2023-03-03T17:06:53.655Z,101815.09
2023-03-03T17:09:42.508Z,101808.75
2023-03-03T17:12:23.704Z,101816.72
2023-03-03T17:15:13.747Z,101824.97
2023-03-03T17:17:58.414Z,101816.66
2023-03-03T17:20:43.271Z,101820.78
2023-03-03T17:23:40.541Z,101819.91
2023-03-03T17:26:29.031Z,101824.38
2023-03-03T17:29:20.042Z,101823.03
2023-03-03T17:31:55.480Z,101819.97
2023-03-03T17:34:40.616Z,101813.94
2023-03-03T17:37:23.870Z,101823.63
2023-03-03T17:40:13.210Z,101825.56
2023-03-03T17:42:54.908Z,101820.75
2023-03-03T17:45:22.138Z,101819.03
2023-03-03T17:47:57.764Z,101822.03
2023-03-03T17:50:42.447Z,101816.97
2023-03-03T17:53:27.158Z,101810.34
2023-03-03T17:56:03.003Z,101822.00
2023-03-03T17:58:33.117Z,101822.22
2023-03-03T18:01:02.248Z,101821.03
2023-03-03T18:03:47.513Z,101823.09
2023-03-03T18:06:23.915Z,101819.16
2023-03-03T18:09:25.374Z,101824.53
2023-03-03T18:12:03.860Z,101830.09
2023-03-03T18:14:48.698Z,101824.22
2023-03-03T18:17:46.461Z,101813.88
2023-03-03T18:20:48.411Z,101810.25
2023-03-03T18:23:28.783Z,101806.41
2023-03-03T18:26:03.034Z,101805.66
2023-03-03T18:28:51.458Z,101812.25
2023-03-03T18:31:25.028Z,101815.88
2023-03-03T18:34:05.306Z,101809.59
2023-03-03T18:36:32.266Z,101804.03
2023-03-03T18:39:01.086Z,101801.16
2023-03-03T18:41:29.552Z,101795.97
2023-03-03T18:44:04.681Z,101805.16
2023-03-03T18:46:31.243Z,101801.81
2023-03-03T18:49:04.665Z,101801.97
2023-03-03T18:51:34.236Z,101791.97
2023-03-03T18:54:26.327Z,101800.84
2023-03-03T18:56:52.740Z,101800.88
2023-03-03T18:59:40.071Z,101801.06
2023-03-03T19:02:12.519Z,101801.69
2023-03-03T19:04:44.696Z,101801.47
2023-03-03T19:07:27.608Z,101797.97
2023-03-03T19:09:57.637Z,101798.56
2023-03-03T19:12:46.627Z,101791.47
2023-03-03T19:15:31.604Z,101796.59
2023-03-03T19:17:58.891Z,101792.66
2023-03-03T19:20:26.973Z,101791.34
2023-03-03T19:23:03.370Z,101799.44
2023-03-03T19:25:31.895Z,101795.06
2023-03-03T19:28:17.479Z,101797.22
2023-03-03T19:31:04.864Z,101791.47
2023-03-03T19:34:03.395Z,101792.34
2023-03-03T19:36:44.960Z,101795.47
2023-03-03T19:39:23.737Z,101800.94
2023-03-03T19:41:50.148Z,101794.66
2023-03-03T19:44:35.302Z,101789.78
2023-03-03T19:47:04.971Z,101785.34
2023-03-03T19:50:00.737Z,101792.38
2023-03-03T19:52:52.168Z,101791.06
2023-03-03T19:55:28.226Z,101784.38
2023-03-03T19:58:02.588Z,101784.38
2023-03-03T20:00:41.078Z,101781.84
2023-03-03T20:03:25.330Z,101772.31
2023-03-03T20:06:13.458Z,101777.22
2023-03-03T20:08:46.467Z,101779.41
2023-03-03T20:11:37.835Z,101779.91
2023-03-03T20:14:19.558Z,101779.13
2023-03-03T20:16:48.324Z,101776.38
2023-03-03T20:19:17.733Z,101783.16
2023-03-03T20:22:09.175Z,101784.78
2023-03-03T20:24:58.560Z,101780.22
2023-03-03T20:27:30.583Z,101769.19
2023-03-03T20:30:21.709Z,101773.63
2023-03-03T20:33:13.036Z,101780.50
2023-03-03T20:36:07.778Z,101778.13
2023-03-03T20:38:39.166Z,101780.22
2023-03-03T20:41:05.688Z,101783.66
2023-03-03T20:44:07.585Z,101780.66
2023-03-03T20:46:42.125Z,101781.38
2023-03-03T20:49:27.304Z,101775.69
2023-03-03T20:51:53.746Z,101778.13
2023-03-03T20:54:41.395Z,101783.72
2023-03-03T20:57:33.761Z,101776.50
2023-03-03T21:00:32.767Z,101780.84
2023-03-03T21:03:30.702Z,101765.81
2023-03-03T21:05:59.517Z,101771.50
2023-03-03T21:08:48.731Z,101763.25
2023-03-03T21:11:18.503Z,101767.66
2023-03-03T21:13:47.617Z,101767.09
2023-03-03T21:16:30.895Z,101764.72
2023-03-03T21:19:03.724Z,101773.31
2023-03-03T21:21:33.742Z,101765.72
2023-03-03T21:24:00.309Z,101763.56
2023-03-03T21:26:54.012Z,101761.63
2023-03-03T21:29:33.900Z,101756.16
2023-03-03T21:32:08.581Z,101763.25
2023-03-03T21:34:37.734Z,101762.97
2023-03-03T21:37:08.719Z,101765.66
2023-03-03T21:39:44.334Z,101762.50
2023-03-03T21:42:15.536Z,101757.25
2023-03-03T21:44:49.538Z,101754.81
2023-03-03T21:47:22.039Z,101752.75
2023-03-03T21:49:50.489Z,101746.97
2023-03-03T21:52:19.090Z,101743.81
2023-03-03T21:54:46.499Z,101734.38
2023-03-03T21:57:13.431Z,101736.34
2023-03-03T21:59:40.258Z,101729.03
2023-03-03T22:02:07.808Z,101731.38
2023-03-03T22:04:35.105Z,101731.34
2023-03-03T22:07:01.808Z,101735.81
2023-03-03T22:09:28.261Z,101726.63
2023-03-03T22:11:54.732Z,101738.34
2023-03-03T22:14:21.214Z,101740.63
2023-03-03T22:16:47.747Z,101733.59
2023-03-03T22:19:14.266Z,101733.06
2023-03-03T22:21:40.860Z,101740.47
2023-03-03T22:24:07.847Z,101733.78
2023-03-03T22:26:34.491Z,101725.22
2023-03-03T22:29:01.006Z,101730.31
2023-03-03T22:31:27.778Z,101726.13
2023-03-03T22:33:54.279Z,101732.03
2023-03-03T22:36:20.723Z,101720.66
2023-03-03T22:38:47.559Z,101721.88
2023-03-03T22:41:14.640Z,101721.94
2023-03-03T22:43:42.024Z,101707.69
2023-03-03T22:46:08.936Z,101707.75
2023-03-03T22:48:35.947Z,101713.59
2023-03-03T22:51:02.504Z,101711.44
2023-03-03T22:53:28.988Z,101713.06
2023-03-03T22:55:55.487Z,101699.88
2023-03-03T22:58:25.378Z,101708.72
2023-03-03T23:00:53.935Z,101694.69
2023-03-03T23:03:21.027Z,101688.16
2023-03-03T23:05:50.223Z,101684.31
2023-03-03T23:08:18.727Z,101689.63
2023-03-03T23:10:45.346Z,101690.47
2023-03-03T23:13:13.250Z,101685.03
2023-03-03T23:15:40.421Z,101693.53
2023-03-03T23:18:07.070Z,101672.75
2023-03-03T23:20:34.124Z,101668.91
2023-03-03T23:23:00.784Z,101680.44
2023-03-03T23:25:28.865Z,101682.16
2023-03-03T23:27:56.132Z,101686.22
2023-03-03T23:30:22.885Z,101683.78
2023-03-03T23:32:49.554Z,101678.13
2023-03-03T23:35:16.654Z,101683.78
2023-03-03T23:37:43.321Z,101675.03
2023-03-03T23:40:10.738Z,101673.91
2023-03-03T23:42:37.217Z,101671.59
2023-03-03T23:45:04.188Z,101669.06
2023-03-03T23:47:30.670Z,101665.00
2023-03-03T23:49:57.102Z,101662.16
2023-03-03T23:52:23.695Z,101674.53
2023-03-03T23:54:50.154Z,101663.44
2023-03-03T23:57:16.624Z,101664.31
2023-03-03T23:59:43.080Z,101665.78
